createdAt,value
2022-08-30T00:00:30.132Z,18.80
2022-08-30T00:03:18.158Z,18.70
2022-08-30T00:06:06.831Z,18.40
2022-08-30T00:08:54.548Z,18.30
2022-08-30T00:11:41.565Z,18.40
2022-08-30T00:14:29.597Z,18.40
2022-08-30T00:17:17.106Z,18.40
2022-08-30T00:20:07.515Z,18.40
2022-08-30T00:22:55.270Z,18.30
2022-08-30T00:25:43.165Z,18.30
2022-08-30T00:28:31.879Z,18.20
2022-08-30T00:31:19.372Z,18.30
2022-08-30T00:34:07.298Z,18.30
2022-08-30T00:36:54.434Z,18.30
2022-08-30T00:39:42.334Z,18.30
2022-08-30T00:42:29.215Z,18.30
2022-08-30T00:45:22.385Z,18.30
2022-08-30T00:48:10.110Z,18.30
2022-08-30T00:51:03.641Z,18.30
2022-08-30T00:53:54.941Z,18.20
2022-08-30T00:56:44.104Z,18.10
2022-08-30T00:59:32.410Z,17.90
2022-08-30T01:02:22.725Z,18.00
2022-08-30T01:05:16.183Z,18.10
2022-08-30T01:08:02.263Z,18.20
2022-08-30T01:10:50.733Z,18.20
2022-08-30T01:13:38.481Z,18.20
2022-08-30T01:16:28.330Z,18.20
2022-08-30T01:19:38.197Z,18.20
2022-08-30T01:22:47.967Z,18.30
2022-08-30T01:25:37.340Z,18.30
2022-08-30T01:28:27.692Z,18.40
2022-08-30T01:31:15.824Z,18.50
2022-08-30T01:34:05.168Z,18.40
2022-08-30T01:36:52.704Z,18.50
2022-08-30T01:39:40.380Z,18.50
2022-08-30T01:42:28.365Z,18.50
2022-08-30T01:45:15.995Z,18.40
2022-08-30T01:48:06.630Z,18.40
2022-08-30T01:50:52.323Z,18.40
2022-08-30T01:53:41.005Z,18.40
2022-08-30T01:56:30.395Z,18.50
2022-08-30T01:59:17.912Z,18.60
2022-08-30T02:02:06.299Z,18.60
2022-08-30T02:04:55.298Z,18.50
2022-08-30T02:07:42.890Z,18.50
2022-08-30T02:10:30.593Z,18.40
2022-08-30T02:13:18.056Z,18.30
2022-08-30T02:16:07.545Z,18.10
2022-08-30T02:18:57.155Z,18.00
2022-08-30T02:21:44.639Z,18.10
2022-08-30T02:24:32.124Z,18.10
2022-08-30T02:27:19.478Z,18.20
2022-08-30T02:30:09.224Z,18.10
2022-08-30T02:32:56.214Z,18.10
2022-08-30T02:35:43.288Z,18.20
2022-08-30T02:38:31.177Z,18.10
2022-08-30T02:41:20.927Z,18.10
2022-08-30T02:44:08.941Z,17.90
2022-08-30T02:46:56.282Z,17.70
2022-08-30T02:49:43.820Z,17.80
2022-08-30T02:52:30.689Z,17.80
2022-08-30T02:55:18.631Z,17.80
2022-08-30T02:58:06.230Z,17.80
2022-08-30T03:00:53.448Z,17.90
2022-08-30T03:03:42.474Z,17.90
2022-08-30T03:06:29.676Z,17.90
2022-08-30T03:09:17.154Z,17.90
2022-08-30T03:12:06.975Z,17.90
2022-08-30T03:14:54.961Z,17.90
2022-08-30T03:17:42.725Z,17.80
2022-08-30T03:20:30.225Z,17.80
2022-08-30T03:23:21.916Z,17.70
2022-08-30T03:26:07.985Z,17.70
2022-08-30T03:28:55.234Z,17.60
2022-08-30T03:31:53.098Z,17.50
2022-08-30T03:34:32.298Z,17.50
2022-08-30T03:37:22.347Z,17.40
2022-08-30T03:40:10.611Z,17.50
2022-08-30T03:42:57.668Z,17.40
2022-08-30T03:45:44.828Z,17.40
2022-08-30T03:48:32.152Z,17.40
2022-08-30T03:51:19.962Z,17.40
2022-08-30T03:54:07.453Z,17.30
2022-08-30T03:56:54.843Z,17.30
2022-08-30T03:59:42.093Z,17.20
2022-08-30T04:02:29.490Z,17.10
2022-08-30T04:05:18.535Z,16.90
2022-08-30T04:08:05.327Z,16.80
2022-08-30T04:10:53.487Z,16.80
2022-08-30T04:13:40.650Z,16.70
2022-08-30T04:16:28.169Z,16.60
2022-08-30T04:19:15.292Z,16.70
2022-08-30T04:22:02.209Z,16.60
2022-08-30T04:24:49.252Z,16.60
2022-08-30T04:27:36.639Z,16.60
2022-08-30T04:30:23.950Z,16.50
2022-08-30T04:33:12.799Z,16.30
2022-08-30T04:36:04.400Z,16.20
2022-08-30T04:38:51.639Z,16.20
2022-08-30T04:41:40.238Z,16.20
2022-08-30T04:44:27.426Z,16.20
2022-08-30T04:47:14.769Z,16.20
2022-08-30T04:50:02.005Z,16.20
2022-08-30T04:52:49.770Z,16.20
2022-08-30T04:55:37.506Z,16.20
2022-08-30T04:58:24.571Z,16.30
2022-08-30T05:01:20.897Z,16.20
2022-08-30T05:04:09.306Z,16.20
2022-08-30T05:06:56.739Z,16.30
2022-08-30T05:09:44.098Z,16.30
2022-08-30T05:12:31.117Z,16.30
2022-08-30T05:15:19.581Z,16.40
2022-08-30T05:18:08.245Z,16.40
2022-08-30T05:21:11.137Z,16.50
2022-08-30T05:24:02.760Z,16.50
2022-08-30T05:26:49.798Z,16.50
2022-08-30T05:29:36.952Z,16.60
2022-08-30T05:32:24.723Z,16.70
2022-08-30T05:35:13.825Z,16.70
2022-08-30T05:38:01.440Z,16.80
2022-08-30T05:40:54.573Z,16.90
2022-08-30T05:43:41.731Z,16.90
2022-08-30T05:49:19.600Z,17.10
2022-08-30T05:52:07.150Z,17.20
2022-08-30T05:54:59.117Z,17.30
2022-08-30T05:57:46.329Z,17.40
2022-08-30T06:00:33.411Z,17.50
2022-08-30T06:03:20.572Z,17.70
2022-08-30T06:06:08.135Z,17.80
2022-08-30T06:08:55.610Z,18.00
2022-08-30T06:11:45.456Z,18.10
2022-08-30T06:14:32.404Z,18.30
2022-08-30T06:17:19.615Z,18.40
2022-08-30T06:20:07.598Z,18.60
2022-08-30T06:22:55.191Z,18.90
2022-08-30T06:25:42.359Z,19.10
2022-08-30T06:28:29.510Z,19.40
2022-08-30T06:31:19.135Z,19.60
2022-08-30T06:34:07.376Z,19.80
2022-08-30T06:36:54.714Z,20.10
2022-08-30T06:39:41.476Z,20.20
2022-08-30T06:42:32.094Z,20.50
2022-08-30T06:45:20.429Z,20.60
2022-08-30T06:48:07.729Z,20.80
2022-08-30T06:50:55.941Z,20.90
2022-08-30T06:53:43.438Z,21.10
2022-08-30T06:56:31.157Z,21.30
2022-08-30T06:59:18.763Z,21.40
2022-08-30T07:02:06.837Z,21.50
2022-08-30T07:04:54.249Z,21.60
2022-08-30T07:07:41.706Z,21.60
2022-08-30T07:10:28.924Z,21.80
2022-08-30T07:13:17.424Z,21.90
2022-08-30T07:16:13.314Z,22.00
2022-08-30T07:19:02.699Z,22.00
2022-08-30T07:21:50.871Z,22.10
2022-08-30T07:24:38.009Z,22.40
2022-08-30T07:27:25.324Z,22.40
2022-08-30T07:30:12.816Z,22.70
2022-08-30T07:33:00.867Z,22.80
2022-08-30T07:35:48.347Z,22.80
2022-08-30T07:38:35.948Z,23.00
2022-08-30T07:41:26.307Z,23.10
2022-08-30T07:44:13.817Z,23.20
2022-08-30T07:47:01.155Z,23.00
2022-08-30T07:49:48.377Z,23.10
2022-08-30T07:55:23.476Z,23.50
2022-08-30T07:58:10.524Z,23.60
2022-08-30T08:00:59.443Z,23.70
2022-08-30T08:03:47.815Z,23.80
2022-08-30T08:06:38.850Z,23.90
2022-08-30T08:09:26.403Z,24.20
2022-08-30T08:12:13.574Z,24.30
2022-08-30T08:15:04.174Z,24.10
2022-08-30T08:17:50.297Z,24.20
2022-08-30T08:20:37.823Z,24.30
2022-08-30T08:23:25.271Z,24.30
2022-08-30T08:26:12.592Z,24.30
2022-08-30T08:28:59.919Z,24.50
2022-08-30T08:31:47.347Z,24.60
2022-08-30T08:34:35.830Z,24.50
2022-08-30T08:37:27.774Z,24.40
2022-08-30T08:40:14.809Z,24.50
2022-08-30T08:43:08.074Z,24.50
2022-08-30T08:46:15.314Z,24.70
2022-08-30T08:49:07.031Z,25.00
2022-08-30T08:52:14.044Z,24.60
2022-08-30T08:55:04.990Z,24.70
2022-08-30T08:57:52.471Z,25.10
2022-08-30T09:00:39.509Z,25.00
2022-08-30T09:03:29.953Z,25.00
2022-08-30T09:06:32.157Z,25.30
2022-08-30T09:09:28.508Z,25.50
2022-08-30T09:12:15.727Z,25.70
2022-08-30T09:15:09.469Z,25.80
2022-08-30T09:18:02.480Z,25.90
2022-08-30T09:20:51.503Z,25.80
2022-08-30T09:23:41.870Z,25.90
2022-08-30T09:26:32.339Z,25.90
2022-08-30T09:29:20.571Z,26.20
2022-08-30T09:32:24.765Z,26.20
2022-08-30T09:34:56.660Z,25.90
2022-08-30T09:37:56.455Z,26.20
2022-08-30T09:40:47.224Z,26.50
2022-08-30T09:43:35.841Z,26.20
2022-08-30T09:46:25.168Z,26.10
2022-08-30T09:49:39.309Z,26.20
2022-08-30T09:52:55.040Z,26.30
2022-08-30T09:55:50.482Z,26.50
2022-08-30T09:58:41.335Z,26.50
2022-08-30T10:01:43.308Z,27.20
2022-08-30T10:04:50.790Z,27.20
2022-08-30T10:08:00.355Z,27.20
2022-08-30T10:10:56.360Z,27.40
2022-08-30T10:14:02.732Z,27.90
2022-08-30T10:16:59.017Z,27.60
2022-08-30T10:19:58.267Z,27.60
2022-08-30T10:22:58.816Z,28.10
2022-08-30T10:25:58.316Z,28.80
2022-08-30T10:28:50.273Z,29.40
2022-08-30T10:31:52.679Z,29.80
2022-08-30T10:34:48.559Z,29.90
2022-08-30T10:37:39.918Z,29.70
2022-08-30T10:40:56.349Z,29.60
2022-08-30T10:44:02.259Z,29.50
2022-08-30T10:46:55.235Z,29.90
2022-08-30T10:49:45.402Z,30.30
2022-08-30T10:52:52.660Z,29.90
2022-08-30T10:55:52.198Z,29.90
2022-08-30T10:58:41.906Z,29.60
2022-08-30T11:01:32.134Z,30.00
2022-08-30T11:04:45.523Z,30.40
2022-08-30T11:08:03.365Z,30.80
2022-08-30T11:10:59.561Z,30.50
2022-08-30T11:13:47.745Z,30.10
2022-08-30T11:16:43.919Z,30.30
2022-08-30T11:19:40.010Z,30.80
2022-08-30T11:22:38.267Z,30.80
2022-08-30T11:25:53.345Z,30.60
2022-08-30T11:28:42.753Z,31.20
2022-08-30T11:31:36.273Z,32.00
2022-08-30T11:34:49.385Z,32.40
2022-08-30T11:37:44.832Z,31.90
2022-08-30T11:40:49.237Z,32.60
2022-08-30T11:43:41.383Z,32.80
2022-08-30T11:46:31.615Z,32.40
2022-08-30T11:49:25.089Z,31.70
2022-08-30T11:52:39.240Z,31.70
2022-08-30T11:55:41.088Z,31.90
2022-08-30T11:58:37.639Z,31.60
2022-08-30T12:01:42.006Z,31.80
2022-08-30T12:04:22.064Z,31.60
2022-08-30T12:07:10.423Z,31.80
2022-08-30T12:10:02.960Z,32.70
2022-08-30T12:12:51.708Z,33.20
2022-08-30T12:16:00.790Z,33.70
2022-08-30T12:18:51.503Z,33.60
2022-08-30T12:21:44.656Z,33.30
2022-08-30T12:24:35.976Z,33.10
2022-08-30T12:27:34.905Z,33.60
2022-08-30T12:30:28.022Z,33.80
2022-08-30T12:33:18.271Z,33.70
2022-08-30T12:36:06.506Z,33.90
2022-08-30T12:38:56.998Z,34.30
2022-08-30T12:41:46.026Z,34.50
2022-08-30T12:44:33.456Z,34.40
2022-08-30T12:47:23.820Z,34.20
2022-08-30T12:50:15.273Z,34.10
2022-08-30T12:53:13.924Z,33.30
2022-08-30T12:56:05.932Z,33.10
2022-08-30T12:58:55.404Z,33.10
2022-08-30T13:01:42.843Z,33.00
2022-08-30T13:04:32.984Z,33.20
2022-08-30T13:07:32.641Z,33.50
2022-08-30T13:10:20.009Z,33.60
2022-08-30T13:13:07.979Z,33.60
2022-08-30T13:15:55.317Z,33.10
2022-08-30T13:18:42.835Z,32.50
2022-08-30T13:21:32.394Z,33.10
2022-08-30T13:24:23.499Z,33.40
2022-08-30T13:27:09.668Z,33.10
2022-08-30T13:30:00.663Z,32.60
2022-08-30T13:32:47.909Z,32.20
2022-08-30T13:35:34.841Z,32.40
2022-08-30T13:38:23.665Z,32.30
2022-08-30T13:41:11.326Z,32.20
2022-08-30T13:44:15.879Z,32.10
2022-08-30T13:46:54.418Z,32.10
2022-08-30T13:49:44.780Z,32.80
2022-08-30T13:52:29.683Z,33.10
2022-08-30T13:55:17.214Z,32.80
2022-08-30T13:58:04.989Z,33.10
2022-08-30T14:00:53.830Z,32.60
2022-08-30T14:04:13.364Z,32.60
2022-08-30T14:06:33.893Z,32.60
2022-08-30T14:09:19.265Z,32.50
2022-08-30T14:15:14.817Z,33.30
2022-08-30T14:18:03.415Z,33.50
2022-08-30T14:20:51.149Z,33.70
2022-08-30T14:23:38.567Z,33.50
2022-08-30T14:26:32.836Z,33.10
2022-08-30T14:29:24.729Z,33.30
2022-08-30T14:32:12.145Z,33.50
2022-08-30T14:34:59.491Z,33.80
2022-08-30T14:37:48.500Z,33.70
2022-08-30T14:40:35.854Z,33.40
2022-08-30T14:43:23.485Z,33.10
2022-08-30T14:46:11.175Z,32.90
2022-08-30T14:48:58.552Z,32.70
2022-08-30T14:51:48.187Z,32.60
2022-08-30T14:54:35.320Z,32.20
2022-08-30T14:57:22.627Z,32.20
2022-08-30T15:00:12.591Z,32.10
2022-08-30T15:02:59.749Z,32.50
2022-08-30T15:05:53.119Z,32.40
2022-08-30T15:08:41.006Z,32.20
2022-08-30T15:11:29.585Z,32.20
2022-08-30T15:14:17.158Z,32.20
2022-08-30T15:17:04.460Z,32.20
2022-08-30T15:19:51.810Z,32.30
2022-08-30T15:22:38.968Z,32.30
2022-08-30T15:25:27.775Z,32.70
2022-08-30T15:28:16.755Z,32.70
2022-08-30T15:31:08.701Z,32.80
2022-08-30T15:33:53.304Z,33.00
2022-08-30T15:36:41.219Z,33.10
2022-08-30T15:39:29.173Z,33.30
2022-08-30T15:42:19.652Z,33.20
2022-08-30T15:45:07.836Z,33.30
2022-08-30T15:47:55.639Z,33.30
2022-08-30T15:50:43.509Z,33.40
2022-08-30T15:53:32.057Z,33.40
2022-08-30T15:56:19.519Z,33.30
2022-08-30T15:59:06.515Z,33.10
2022-08-30T16:01:54.326Z,33.10
2022-08-30T16:04:42.111Z,32.70
2022-08-30T16:07:30.508Z,32.90
2022-08-30T16:10:17.730Z,33.20
2022-08-30T16:13:05.534Z,33.50
2022-08-30T16:15:54.200Z,33.80
2022-08-30T16:18:41.975Z,33.60
2022-08-30T16:21:31.665Z,33.30
2022-08-30T16:24:22.703Z,32.90
2022-08-30T16:27:08.934Z,32.60
2022-08-30T16:29:56.504Z,32.60
2022-08-30T16:32:44.566Z,32.40
2022-08-30T16:35:31.820Z,32.40
2022-08-30T16:38:19.532Z,32.40
2022-08-30T16:41:13.136Z,32.40
2022-08-30T16:44:01.596Z,32.20
2022-08-30T16:46:52.984Z,32.10
2022-08-30T16:49:40.514Z,32.00
2022-08-30T16:52:27.850Z,31.70
2022-08-30T16:55:15.089Z,31.60
2022-08-30T16:58:04.401Z,31.40
2022-08-30T17:00:52.584Z,31.30
2022-08-30T17:03:40.023Z,30.90
2022-08-30T17:06:27.955Z,30.80
2022-08-30T17:09:15.482Z,30.70
2022-08-30T17:12:03.830Z,30.80
2022-08-30T17:14:51.035Z,30.60
2022-08-30T17:17:38.509Z,30.50
2022-08-30T17:20:29.572Z,30.20
2022-08-30T17:23:18.485Z,30.10
2022-08-30T17:26:06.700Z,29.90
2022-08-30T17:28:54.074Z,29.80
2022-08-30T17:31:44.537Z,29.60
2022-08-30T17:34:32.161Z,29.30
2022-08-30T17:37:20.699Z,29.30
2022-08-30T17:40:09.453Z,29.30
2022-08-30T17:42:58.462Z,29.30
2022-08-30T17:45:46.190Z,29.10
2022-08-30T17:48:33.430Z,29.00
2022-08-30T17:51:20.736Z,29.00
2022-08-30T17:54:08.285Z,28.90
2022-08-30T17:56:57.259Z,28.80
2022-08-30T17:59:45.515Z,28.70
2022-08-30T18:02:32.906Z,28.60
2022-08-30T18:05:24.844Z,28.50
2022-08-30T18:08:09.547Z,28.40
2022-08-30T18:10:56.941Z,28.40
2022-08-30T18:13:44.192Z,28.20
2022-08-30T18:16:34.921Z,28.10
2022-08-30T18:19:23.732Z,28.10
2022-08-30T18:22:11.176Z,27.90
2022-08-30T18:25:02.222Z,27.70
2022-08-30T18:27:57.165Z,27.70
2022-08-30T18:30:41.487Z,27.60
2022-08-30T18:33:27.513Z,27.50
2022-08-30T18:36:16.360Z,27.40
2022-08-30T18:39:05.400Z,27.40
2022-08-30T18:41:54.697Z,27.30
2022-08-30T18:44:43.450Z,27.20
2022-08-30T18:47:31.827Z,27.10
2022-08-30T18:50:20.543Z,26.90
2022-08-30T18:53:08.071Z,26.90
2022-08-30T18:55:57.446Z,26.80
2022-08-30T18:58:47.531Z,26.60
2022-08-30T19:01:35.073Z,26.60
2022-08-30T19:04:30.296Z,26.50
2022-08-30T19:07:15.716Z,26.50
2022-08-30T19:10:04.504Z,26.40
2022-08-30T19:12:52.139Z,26.30
2022-08-30T19:15:40.256Z,26.30
2022-08-30T19:18:27.700Z,26.20
2022-08-30T19:21:15.244Z,26.10
2022-08-30T19:24:05.189Z,26.00
2022-08-30T19:26:52.294Z,26.00
2022-08-30T19:29:40.944Z,25.90
2022-08-30T19:32:28.627Z,25.80
2022-08-30T19:35:17.777Z,25.80
2022-08-30T19:38:05.675Z,25.80
2022-08-30T19:40:59.007Z,25.80
2022-08-30T19:43:46.370Z,25.70
2022-08-30T19:46:34.644Z,25.60
2022-08-30T19:49:23.420Z,25.50
2022-08-30T19:52:11.459Z,25.50
2022-08-30T19:55:01.043Z,25.40
2022-08-30T19:57:49.563Z,25.30
2022-08-30T20:00:41.911Z,25.20
2022-08-30T20:03:26.461Z,25.20
2022-08-30T20:06:14.311Z,25.10
2022-08-30T20:09:02.609Z,25.20
2022-08-30T20:11:52.559Z,25.10
2022-08-30T20:14:39.185Z,25.00
2022-08-30T20:17:37.778Z,25.00
2022-08-30T20:20:18.112Z,24.90
2022-08-30T20:23:08.135Z,24.90
2022-08-30T20:25:56.956Z,24.80
2022-08-30T20:28:44.251Z,24.80
2022-08-30T20:31:32.007Z,24.80
2022-08-30T20:34:20.907Z,24.70
2022-08-30T20:37:09.723Z,24.80
2022-08-30T20:39:58.080Z,24.70
2022-08-30T20:42:46.590Z,24.70
2022-08-30T20:45:34.694Z,24.70
2022-08-30T20:48:22.739Z,24.60
2022-08-30T20:51:15.264Z,24.60
2022-08-30T20:54:03.197Z,24.50
2022-08-30T20:56:51.488Z,24.50
2022-08-30T20:59:39.427Z,24.50
2022-08-30T21:02:26.968Z,24.50
2022-08-30T21:05:15.560Z,24.50
2022-08-30T21:08:02.599Z,24.40
2022-08-30T21:10:51.808Z,24.30
2022-08-30T21:13:39.655Z,24.30
2022-08-30T21:16:27.232Z,24.30
2022-08-30T21:19:14.643Z,24.20
2022-08-30T21:22:03.728Z,24.20
2022-08-30T21:24:51.784Z,24.20
2022-08-30T21:27:39.095Z,24.20
2022-08-30T21:30:26.509Z,24.30
2022-08-30T21:33:13.873Z,24.30
2022-08-30T21:36:19.242Z,24.30
2022-08-30T21:39:07.569Z,24.30
2022-08-30T21:41:56.904Z,24.30
2022-08-30T21:44:44.194Z,24.20
2022-08-30T21:47:31.771Z,24.20
2022-08-30T21:50:19.363Z,24.20
2022-08-30T21:53:07.049Z,24.10
2022-08-30T21:55:54.532Z,24.20
2022-08-30T21:58:43.177Z,24.10
2022-08-30T22:01:31.238Z,24.10
2022-08-30T22:04:21.966Z,24.00
2022-08-30T22:07:08.354Z,24.00
2022-08-30T22:09:55.925Z,23.90
2022-08-30T22:12:43.462Z,23.90
2022-08-30T22:15:30.885Z,23.90
2022-08-30T22:18:18.101Z,23.90
2022-08-30T22:21:07.011Z,23.90
2022-08-30T22:23:54.780Z,23.90
2022-08-30T22:26:42.055Z,23.90
2022-08-30T22:29:30.451Z,23.90
2022-08-30T22:32:17.859Z,23.90
2022-08-30T22:35:05.442Z,23.90
2022-08-30T22:37:53.171Z,23.80
2022-08-30T22:40:53.636Z,23.80
2022-08-30T22:43:41.852Z,23.80
2022-08-30T22:46:34.255Z,23.80
2022-08-30T22:49:18.765Z,23.80
2022-08-30T22:52:06.659Z,23.80
2022-08-30T22:54:53.921Z,23.80
2022-08-30T22:57:42.883Z,23.80
2022-08-30T23:00:30.372Z,23.70
2022-08-30T23:03:18.549Z,23.60
2022-08-30T23:06:06.280Z,23.70
2022-08-30T23:08:53.848Z,23.80
2022-08-30T23:11:40.819Z,23.70
2022-08-30T23:14:28.370Z,23.70
2022-08-30T23:17:16.480Z,23.70
2022-08-30T23:20:04.926Z,23.70
2022-08-30T23:23:00.194Z,23.70
2022-08-30T23:26:05.760Z,23.60
2022-08-30T23:29:11.363Z,23.60
2022-08-30T23:32:17.008Z,23.60
2022-08-30T23:35:28.992Z,23.60
2022-08-30T23:38:30.824Z,23.60
2022-08-30T23:41:36.744Z,23.60
2022-08-30T23:44:42.460Z,23.60
2022-08-30T23:47:47.956Z,23.50
2022-08-30T23:50:53.999Z,23.40
2022-08-30T23:53:59.589Z,23.40
2022-08-30T23:57:05.268Z,23.30
